createdAt,value
2019-05-28T00:00:17.263Z,17.70
2019-05-28T00:03:16.053Z,15.77
2019-05-28T00:06:14.850Z,15.50
2019-05-28T00:09:13.701Z,16.60
2019-05-28T00:12:12.494Z,15.60
2019-05-28T00:15:11.888Z,15.57
2019-05-28T00:18:10.710Z,14.60
2019-05-28T00:21:09.502Z,15.87
2019-05-28T00:24:08.304Z,14.57
2019-05-28T00:27:07.101Z,14.97
2019-05-28T00:30:19.132Z,15.73
2019-05-28T00:33:07.970Z,14.10
2019-05-28T00:36:06.745Z,14.73
2019-05-28T00:39:07.906Z,13.80
2019-05-28T00:42:06.684Z,13.80
2019-05-28T00:45:06.779Z,13.77
2019-05-28T00:48:05.630Z,12.97
2019-05-28T00:51:04.456Z,12.67
2019-05-28T00:54:03.657Z,13.33
2019-05-28T00:57:03.139Z,14.23
2019-05-28T01:00:02.152Z,13.77
2019-05-28T01:03:01.245Z,13.27
2019-05-28T01:06:00.033Z,13.23
2019-05-28T01:08:58.834Z,12.67
2019-05-28T01:11:58.057Z,12.80
2019-05-28T01:14:56.850Z,13.60
2019-05-28T01:17:56.021Z,13.40
2019-05-28T01:20:54.804Z,12.43
2019-05-28T01:23:53.687Z,12.90
2019-05-28T01:26:52.747Z,12.37
2019-05-28T01:29:51.546Z,12.53
2019-05-28T01:32:50.431Z,13.70
2019-05-28T01:35:49.687Z,13.80
2019-05-28T01:38:49.080Z,12.83
2019-05-28T01:41:48.162Z,15.00
2019-05-28T01:44:47.209Z,14.30
2019-05-28T01:47:46.021Z,14.60
2019-05-28T01:50:44.827Z,14.50
2019-05-28T01:53:43.709Z,15.33
2019-05-28T01:56:43.165Z,15.90
2019-05-28T01:59:42.572Z,14.20
2019-05-28T02:02:41.394Z,14.40
2019-05-28T02:05:40.826Z,13.10
2019-05-28T02:08:39.693Z,12.60
2019-05-28T02:11:38.841Z,13.33
2019-05-28T02:14:37.635Z,12.70
2019-05-28T02:17:36.427Z,13.60
2019-05-28T02:20:35.931Z,12.63
2019-05-28T02:23:35.022Z,12.93
2019-05-28T02:26:34.155Z,11.90
2019-05-28T02:29:33.387Z,12.53
2019-05-28T02:32:32.605Z,12.10
2019-05-28T02:35:31.462Z,13.30
2019-05-28T02:38:30.570Z,12.80
2019-05-28T02:41:29.374Z,11.10
2019-05-28T02:44:28.502Z,12.57
2019-05-28T02:47:27.581Z,12.63
2019-05-28T02:50:51.429Z,12.50
2019-05-28T02:53:50.994Z,10.90
2019-05-28T02:56:50.686Z,11.53
2019-05-28T02:59:50.274Z,11.23
2019-05-28T03:02:49.842Z,11.27
2019-05-28T03:05:50.184Z,11.60
2019-05-28T03:08:49.820Z,12.27
2019-05-28T03:11:49.309Z,11.63
2019-05-28T03:14:48.432Z,11.87
2019-05-28T03:17:49.069Z,11.93
2019-05-28T03:20:49.282Z,10.93
2019-05-28T03:23:48.140Z,10.83
2019-05-28T03:26:47.855Z,10.03
2019-05-28T03:29:47.389Z,10.47
2019-05-28T03:32:46.580Z,10.13
2019-05-28T03:35:46.222Z,10.03
2019-05-28T03:38:45.903Z,9.93
2019-05-28T03:41:45.053Z,10.17
2019-05-28T03:44:44.309Z,10.53
2019-05-28T03:47:43.103Z,10.00
2019-05-28T03:50:42.320Z,9.00
2019-05-28T03:53:41.114Z,8.73
2019-05-28T03:56:40.207Z,8.97
2019-05-28T03:59:38.982Z,8.10
2019-05-28T04:02:38.075Z,8.10
2019-05-28T04:05:36.856Z,8.43
2019-05-28T04:08:35.653Z,9.43
2019-05-28T04:11:44.321Z,8.27
2019-05-28T04:14:35.463Z,9.30
2019-05-28T04:17:34.254Z,9.83
2019-05-28T04:20:33.137Z,8.70
2019-05-28T04:23:31.929Z,9.40
2019-05-28T04:26:30.719Z,9.47
2019-05-28T04:29:29.567Z,9.43
2019-05-28T04:32:39.934Z,8.73
2019-05-28T04:35:28.963Z,8.57
2019-05-28T04:38:27.818Z,9.60
2019-05-28T04:41:27.433Z,10.20
2019-05-28T04:44:26.238Z,9.80
2019-05-28T04:47:25.429Z,9.30
2019-05-28T04:50:24.581Z,8.73
2019-05-28T04:53:23.664Z,8.10
2019-05-28T04:56:22.538Z,8.77
2019-05-28T04:59:21.306Z,9.87
2019-05-28T05:02:20.518Z,9.00
2019-05-28T05:05:19.644Z,8.37
2019-05-28T05:08:18.466Z,8.50
2019-05-28T05:11:17.543Z,9.03
2019-05-28T05:14:16.339Z,8.90
2019-05-28T05:17:15.145Z,8.37
2019-05-28T05:20:14.392Z,7.23
2019-05-28T05:23:13.226Z,8.07
2019-05-28T05:26:12.185Z,7.33
2019-05-28T05:29:11.075Z,6.20
2019-05-28T05:32:10.638Z,6.20
2019-05-28T05:35:09.601Z,6.40
2019-05-28T05:38:08.468Z,7.20
2019-05-28T05:41:07.561Z,7.10
2019-05-28T05:44:06.759Z,5.90
2019-05-28T05:47:05.617Z,5.73
2019-05-28T05:50:05.115Z,5.23
2019-05-28T05:53:04.256Z,5.00
2019-05-28T05:56:03.122Z,5.07
2019-05-28T05:59:02.278Z,4.43
2019-05-28T06:02:01.044Z,4.50
2019-05-28T06:05:00.243Z,4.80
2019-05-28T06:07:59.050Z,4.17
2019-05-28T06:10:57.911Z,3.50
2019-05-28T06:13:56.688Z,4.07
2019-05-28T06:16:55.478Z,4.37
2019-05-28T06:19:54.723Z,4.10
2019-05-28T06:22:53.841Z,3.70
2019-05-28T06:25:52.695Z,4.67
2019-05-28T06:28:51.550Z,4.47
2019-05-28T06:31:50.396Z,3.90
2019-05-28T06:34:49.423Z,4.07
2019-05-28T06:37:48.296Z,4.33
2019-05-28T06:40:47.134Z,4.23
2019-05-28T06:43:46.566Z,4.10
2019-05-28T06:46:45.422Z,4.87
2019-05-28T06:49:44.275Z,6.13
2019-05-28T06:52:43.077Z,5.00
2019-05-28T06:55:41.848Z,4.60
2019-05-28T06:58:40.879Z,4.97
2019-05-28T07:01:39.676Z,5.53
2019-05-28T07:04:38.459Z,5.20
2019-05-28T07:07:37.595Z,5.67
2019-05-28T07:10:36.382Z,6.10
2019-05-28T07:13:35.456Z,6.23
2019-05-28T07:16:34.237Z,5.10
2019-05-28T07:19:33.311Z,5.20
2019-05-28T07:22:32.185Z,5.93
2019-05-28T07:25:30.969Z,4.97
2019-05-28T07:28:29.746Z,5.37
2019-05-28T07:31:28.653Z,4.80
2019-05-28T07:34:31.140Z,5.87
2019-05-28T07:37:29.247Z,5.67
2019-05-28T07:40:31.999Z,5.47
2019-05-28T07:46:41.296Z,6.60
2019-05-28T07:49:40.405Z,6.30
2019-05-28T07:52:39.192Z,6.33
2019-05-28T07:55:38.790Z,7.77
2019-05-28T07:58:37.586Z,6.90
2019-05-28T08:01:36.472Z,7.47
2019-05-28T08:04:46.800Z,7.03
2019-05-28T08:07:35.924Z,5.57
2019-05-28T08:10:35.129Z,5.80
2019-05-28T08:13:40.674Z,5.60
2019-05-28T08:16:34.834Z,5.97
2019-05-28T08:19:34.324Z,7.10
2019-05-28T08:22:42.407Z,6.10
2019-05-28T08:25:46.748Z,6.00
2019-05-28T08:28:35.255Z,4.90
2019-05-28T08:31:34.441Z,5.27
2019-05-28T08:34:33.518Z,5.80
2019-05-28T08:37:32.602Z,5.83
2019-05-28T08:40:31.917Z,8.37
2019-05-28T08:43:31.079Z,7.70
2019-05-28T08:46:29.944Z,9.30
2019-05-28T08:49:29.352Z,10.70
2019-05-28T08:52:28.203Z,10.77
2019-05-28T08:55:27.415Z,10.73
2019-05-28T08:58:26.285Z,11.73
2019-05-28T09:01:26.295Z,10.90
2019-05-28T09:04:25.471Z,11.77
2019-05-28T09:07:24.980Z,12.73
2019-05-28T09:10:23.780Z,11.70
2019-05-28T09:13:22.592Z,12.70
2019-05-28T09:16:21.842Z,12.97
2019-05-28T09:19:20.934Z,14.20
2019-05-28T09:22:25.932Z,14.60
2019-05-28T09:25:21.058Z,14.13
2019-05-28T09:28:29.732Z,14.53
2019-05-28T09:31:21.086Z,17.43
2019-05-28T09:34:19.879Z,17.57
2019-05-28T09:37:18.665Z,22.00
2019-05-28T09:40:18.060Z,21.90
2019-05-28T09:43:16.917Z,21.93
2019-05-28T09:46:15.705Z,21.47
2019-05-28T09:49:14.497Z,25.37
2019-05-28T09:52:13.294Z,23.40
2019-05-28T09:55:12.264Z,23.00
2019-05-28T09:58:11.055Z,23.60
2019-05-28T10:01:09.918Z,23.73
2019-05-28T10:04:09.029Z,24.40
2019-05-28T10:07:08.272Z,24.83
2019-05-28T10:10:08.374Z,25.37
2019-05-28T10:13:07.831Z,24.63
2019-05-28T10:16:06.686Z,22.30
2019-05-28T10:19:05.834Z,24.83
2019-05-28T10:22:04.768Z,26.80
2019-05-28T10:25:03.822Z,24.67
2019-05-28T10:28:02.659Z,22.07
2019-05-28T10:31:01.445Z,23.10
2019-05-28T10:34:00.305Z,23.13
2019-05-28T10:36:59.117Z,24.37
2019-05-28T10:39:58.190Z,23.13
2019-05-28T10:42:57.334Z,25.00
2019-05-28T10:45:56.434Z,22.67
2019-05-28T10:48:55.547Z,20.10
2019-05-28T10:51:54.651Z,18.40
2019-05-28T10:54:53.707Z,17.73
2019-05-28T10:57:52.513Z,15.80
2019-05-28T11:00:51.692Z,16.17
2019-05-28T11:03:50.762Z,16.70
2019-05-28T11:06:52.149Z,18.03
2019-05-28T11:09:50.709Z,16.90
2019-05-28T11:12:49.779Z,17.80
2019-05-28T11:15:48.567Z,16.50
2019-05-28T11:18:47.425Z,17.80
2019-05-28T11:21:46.315Z,18.47
2019-05-28T11:24:45.083Z,19.30
2019-05-28T11:27:44.240Z,20.77
2019-05-28T11:30:43.033Z,16.20
2019-05-28T11:33:41.811Z,10.53
2019-05-28T11:36:40.874Z,11.03
2019-05-28T11:39:39.952Z,12.80
2019-05-28T11:42:39.249Z,12.10
2019-05-28T11:45:38.737Z,11.20
2019-05-28T11:48:37.794Z,12.37
2019-05-28T11:51:36.902Z,10.10
2019-05-28T11:54:35.988Z,10.00
2019-05-28T11:57:35.068Z,10.80
2019-05-28T12:00:34.871Z,10.57
2019-05-28T12:03:33.773Z,10.57
2019-05-28T12:06:37.974Z,8.07
2019-05-28T12:09:33.348Z,6.97
2019-05-28T12:12:32.199Z,8.00
2019-05-28T12:15:31.060Z,6.83
2019-05-28T12:18:29.859Z,6.87
2019-05-28T12:21:29.022Z,7.70
2019-05-28T12:24:28.727Z,6.00
2019-05-28T12:27:27.825Z,8.40
2019-05-28T12:30:27.239Z,5.73
2019-05-28T12:33:26.033Z,4.80
2019-05-28T12:36:24.908Z,4.80
2019-05-28T12:39:23.700Z,4.67
2019-05-28T12:42:22.849Z,5.87
2019-05-28T12:45:34.466Z,4.20
2019-05-28T12:48:22.962Z,4.53
2019-05-28T12:51:21.735Z,4.67
2019-05-28T12:54:20.599Z,6.83
2019-05-28T12:57:19.655Z,4.00
2019-05-28T13:00:20.206Z,4.30
2019-05-28T13:03:19.000Z,4.40
2019-05-28T13:06:18.081Z,4.03
2019-05-28T13:09:16.980Z,4.70
2019-05-28T13:12:16.042Z,6.03
2019-05-28T13:15:15.363Z,4.50
2019-05-28T13:18:14.175Z,6.07
2019-05-28T13:21:13.221Z,7.00
2019-05-28T13:24:12.013Z,9.40
2019-05-28T13:27:17.935Z,7.20
2019-05-28T13:30:12.418Z,5.80
2019-05-28T13:33:11.900Z,11.93
2019-05-28T13:36:11.017Z,9.67
2019-05-28T13:39:10.261Z,13.77
2019-05-28T13:42:09.126Z,11.00
2019-05-28T13:45:08.463Z,11.60
2019-05-28T13:48:07.328Z,15.47
2019-05-28T13:51:06.457Z,12.00
2019-05-28T13:54:05.358Z,11.97
2019-05-28T13:57:04.284Z,10.33
2019-05-28T14:00:03.237Z,8.67
2019-05-28T14:03:02.360Z,9.83
2019-05-28T14:06:01.761Z,8.70
2019-05-28T14:09:00.822Z,8.90
2019-05-28T14:11:59.615Z,8.00
2019-05-28T14:14:59.194Z,10.37
2019-05-28T14:17:57.997Z,9.30
2019-05-28T14:20:56.851Z,8.40
2019-05-28T14:23:55.971Z,10.77
2019-05-28T14:26:54.742Z,10.50
2019-05-28T14:29:53.856Z,11.77
2019-05-28T14:32:53.123Z,14.27
2019-05-28T14:35:51.913Z,14.17
2019-05-28T14:39:02.780Z,14.13
2019-05-28T14:41:51.922Z,14.20
2019-05-28T14:44:50.726Z,14.20
2019-05-28T14:47:49.796Z,12.53
2019-05-28T14:50:48.904Z,13.00
2019-05-28T14:53:47.775Z,17.67
2019-05-28T14:56:46.912Z,14.37
2019-05-28T14:59:45.780Z,15.57
2019-05-28T15:02:45.611Z,15.63
2019-05-28T15:05:44.404Z,12.23
2019-05-28T15:08:43.516Z,14.17
2019-05-28T15:11:42.363Z,11.33
2019-05-28T15:14:41.162Z,8.63
2019-05-28T15:17:40.396Z,7.10
2019-05-28T15:20:39.484Z,10.07
2019-05-28T15:23:38.549Z,10.70
2019-05-28T15:26:37.322Z,11.90
2019-05-28T15:29:36.127Z,11.37
2019-05-28T15:32:34.903Z,11.03
2019-05-28T15:35:34.027Z,11.67
2019-05-28T15:38:33.163Z,10.40
2019-05-28T15:41:32.291Z,15.03
2019-05-28T15:44:31.070Z,10.30
2019-05-28T15:47:29.890Z,12.23
2019-05-28T15:50:28.689Z,10.03
2019-05-28T15:53:27.472Z,11.27
2019-05-28T15:56:26.947Z,12.60
2019-05-28T15:59:26.138Z,11.90
2019-05-28T16:02:24.921Z,11.53
2019-05-28T16:05:23.709Z,12.13
2019-05-28T16:08:22.760Z,13.47
2019-05-28T16:11:21.570Z,11.73
2019-05-28T16:14:20.409Z,12.33
2019-05-28T16:17:19.668Z,15.20
2019-05-28T16:20:18.710Z,14.50
2019-05-28T16:23:17.775Z,15.47
2019-05-28T16:26:16.867Z,11.30
2019-05-28T16:29:16.354Z,12.33
2019-05-28T16:32:15.145Z,16.77
2019-05-28T16:35:14.492Z,14.07
2019-05-28T16:38:13.647Z,12.23
2019-05-28T16:41:12.509Z,12.83
2019-05-28T16:44:11.391Z,13.10
2019-05-28T16:47:16.887Z,12.20
2019-05-28T16:50:13.505Z,9.70
2019-05-28T16:53:11.822Z,10.70
2019-05-28T16:56:10.625Z,9.50
2019-05-28T16:59:10.240Z,11.60
2019-05-28T17:02:09.537Z,9.20
2019-05-28T17:05:08.598Z,8.87
2019-05-28T17:08:07.374Z,8.87
2019-05-28T17:11:06.254Z,8.00
2019-05-28T17:14:05.455Z,9.07
2019-05-28T17:17:04.451Z,9.57
2019-05-28T17:20:03.336Z,9.10
2019-05-28T17:23:02.225Z,10.60
2019-05-28T17:26:01.009Z,8.77
2019-05-28T17:29:00.160Z,10.13
2019-05-28T17:31:59.013Z,9.13
2019-05-28T17:34:58.904Z,9.93
2019-05-28T17:37:57.760Z,8.13
2019-05-28T17:40:56.531Z,8.27
2019-05-28T17:43:55.331Z,8.23
2019-05-28T17:46:54.472Z,14.17
2019-05-28T17:49:53.322Z,9.27
2019-05-28T17:52:52.502Z,14.67
2019-05-28T17:55:51.286Z,15.17
2019-05-28T17:58:50.114Z,19.80
2019-05-28T18:01:49.303Z,9.60
2019-05-28T18:04:48.337Z,9.63
2019-05-28T18:07:47.430Z,8.63
2019-05-28T18:10:46.287Z,8.00
2019-05-28T18:13:45.092Z,7.40
2019-05-28T18:16:43.878Z,8.03
2019-05-28T18:19:42.760Z,10.13
2019-05-28T18:22:41.877Z,6.60
2019-05-28T18:25:40.662Z,7.07
2019-05-28T18:28:39.446Z,6.70
2019-05-28T18:31:38.558Z,7.30
2019-05-28T18:34:37.358Z,7.43
2019-05-28T18:37:37.270Z,6.97
2019-05-28T18:40:36.736Z,6.90
2019-05-28T18:43:35.808Z,7.47
2019-05-28T18:46:34.989Z,7.07
2019-05-28T18:49:33.779Z,7.20
2019-05-28T18:52:32.566Z,6.53
2019-05-28T18:55:31.338Z,6.90
2019-05-28T18:58:30.484Z,7.30
2019-05-28T19:01:29.634Z,8.73
2019-05-28T19:04:28.671Z,5.90
2019-05-28T19:07:27.446Z,6.90
2019-05-28T19:10:26.247Z,7.10
2019-05-28T19:13:25.085Z,6.20
2019-05-28T19:16:24.222Z,6.97
2019-05-28T19:19:23.004Z,5.40
2019-05-28T19:22:21.849Z,5.07
2019-05-28T19:25:20.775Z,7.30
2019-05-28T19:28:19.661Z,6.87
2019-05-28T19:31:18.882Z,8.00
2019-05-28T19:34:17.653Z,6.87
2019-05-28T19:37:17.122Z,6.20
2019-05-28T19:40:19.998Z,6.43
2019-05-28T19:43:18.785Z,6.20
2019-05-28T19:46:17.558Z,6.17
2019-05-28T19:49:16.702Z,6.17
2019-05-28T19:52:15.455Z,5.63
2019-05-28T19:55:14.639Z,4.87
2019-05-28T19:58:13.790Z,5.17
2019-05-28T20:01:12.688Z,5.20
2019-05-28T20:04:11.444Z,5.43
2019-05-28T20:07:10.266Z,5.37
2019-05-28T20:10:10.763Z,5.13
2019-05-28T20:13:09.510Z,5.73
2019-05-28T20:16:08.324Z,5.00
2019-05-28T20:19:07.454Z,4.87
2019-05-28T20:22:06.181Z,4.30
2019-05-28T20:25:05.338Z,4.27
2019-05-28T20:28:04.145Z,4.60
2019-05-28T20:31:03.894Z,3.90
2019-05-28T20:34:03.940Z,3.83
2019-05-28T20:37:03.608Z,4.13
2019-05-28T20:40:03.813Z,3.73
2019-05-28T20:43:04.026Z,3.93
2019-05-28T20:46:02.895Z,3.57
2019-05-28T20:49:02.631Z,4.00
2019-05-28T20:52:01.376Z,3.30
2019-05-28T20:55:00.132Z,4.80
2019-05-28T20:57:59.036Z,4.10
2019-05-28T21:00:57.937Z,4.23
2019-05-28T21:03:56.653Z,3.60
2019-05-28T21:06:56.615Z,4.10
2019-05-28T21:09:56.523Z,4.33
2019-05-28T21:12:55.321Z,3.93
2019-05-28T21:15:54.742Z,3.43
2019-05-28T21:18:53.732Z,4.00
2019-05-28T21:21:53.687Z,4.70
2019-05-28T21:24:52.549Z,6.17
2019-05-28T21:27:52.213Z,3.80
2019-05-28T21:30:51.029Z,3.80
2019-05-28T21:33:50.709Z,4.20
2019-05-28T21:36:50.792Z,3.80
2019-05-28T21:39:49.966Z,4.03
2019-05-28T21:42:59.303Z,4.07
2019-05-28T21:45:50.211Z,4.97
2019-05-28T21:48:49.038Z,4.50
2019-05-28T21:51:47.874Z,4.27
2019-05-28T21:54:46.701Z,4.40
2019-05-28T21:57:45.765Z,5.27
2019-05-28T22:00:54.058Z,4.23
2019-05-28T22:03:52.874Z,5.07
2019-05-28T22:06:51.855Z,5.00
2019-05-28T22:09:50.598Z,6.10
2019-05-28T22:12:50.423Z,4.77
2019-05-28T22:15:50.202Z,5.33
2019-05-28T22:18:49.514Z,5.10
2019-05-28T22:21:48.696Z,5.10
2019-05-28T22:24:47.434Z,5.00
2019-05-28T22:27:47.072Z,4.70
2019-05-28T22:30:46.039Z,4.93
2019-05-28T22:33:45.132Z,6.03
2019-05-28T22:36:44.333Z,6.27
2019-05-28T22:39:43.403Z,5.90
2019-05-28T22:42:42.992Z,6.50
2019-05-28T22:45:43.195Z,6.03
2019-05-28T22:48:42.336Z,6.80
2019-05-28T22:51:41.331Z,5.73
2019-05-28T22:54:40.114Z,7.33
2019-05-28T22:57:39.342Z,7.40
2019-05-28T23:00:38.136Z,7.07
2019-05-28T23:03:37.534Z,7.17
2019-05-28T23:06:36.687Z,7.07
2019-05-28T23:09:35.824Z,7.27
2019-05-28T23:12:34.854Z,6.60
2019-05-28T23:15:34.026Z,6.67
2019-05-28T23:18:33.361Z,6.70
2019-05-28T23:21:32.149Z,6.70
2019-05-28T23:24:30.890Z,6.33
2019-05-28T23:27:29.892Z,6.00
2019-05-28T23:30:28.707Z,6.23
2019-05-28T23:33:27.523Z,6.10
2019-05-28T23:36:26.594Z,6.70
2019-05-28T23:39:25.592Z,6.97
2019-05-28T23:42:24.429Z,6.30
2019-05-28T23:45:23.158Z,5.93
2019-05-28T23:48:22.222Z,7.30
2019-05-28T23:51:21.033Z,6.50
2019-05-28T23:54:20.174Z,6.67
2019-05-28T23:57:18.911Z,6.40
